Flight Track Log - Related Links

Times and Time Zones

All times are in EDT time to prevent confusion due to time zone crossing. See the N21EQ flight status page for this flight to view local times or setup timezone preferences in your user account.


Time Position Orientation Groundspeed Altitude Reporting Facility
EDT Latitude Longitude Course Direction KTS MPH feet Rate Location/Type
Sun 01:26:45 PM 41.8858 -103.6200 220° Southwest 117 135 5,100  Level Denver Center
Sun 01:27:47 PM 41.8811 -103.6656 262° West 109 125 6,200 871 Climbing Denver Center
Sun 01:28:00 PM 41.6271 -103.6833 180° South  Level FlightAware Approximate
Sun 01:28:49 PM 41.8619 -103.7033 236° Southwest 119 137 6,900  Level Denver Center
Sun 01:29:00 PM 41.6030 -103.7322 220° Southwest  Level FlightAware Approximate
Sun 01:29:51 PM 41.8225 -103.7322 209° Southwest 136 157 7,800  Level Denver Center
Sun 01:30:00 PM 41.5712 -103.7685 220° Southwest  Level FlightAware Approximate
Sun 01:30:52 PM 41.7814 -103.7450 193° South 146 168 8,000  Level Denver Center
Sun 01:31:00 PM 41.5393 -103.8047 220° Southwest  Level FlightAware Approximate
Sun 01:31:54 PM 41.7300 -103.7647 196° South 156 180 8,000  Level Denver Center
Sun 01:32:56 PM 41.6847 -103.7850 198° South 168 193 8,000  Level Denver Center
Sun 01:33:58 PM 41.6475 -103.8219 217° Southwest 171 197 8,000  Level Denver Center
Sun 01:35:00 PM 41.6069 -103.8644 218° Southwest 169 194 8,000  Level Denver Center
Sun 01:36:02 PM 41.5739 -103.8975 217° Southwest 163 188 8,000  Level Denver Center
Sun 01:37:03 PM 41.5406 -103.9311 217° Southwest 159 183 8,000  Level Denver Center
Sun 01:38:17 PM 41.5028 -103.9697 217° Southwest 156 180 8,000  Level Denver Center
Sun 01:39:20 PM 41.4606 -104.0131 218° Southwest 153 176 8,000  Level Denver Center
Sun 01:40:21 PM 41.4253 -104.0469 216° Southwest 151 174 8,000  Level Denver Center
Sun 01:41:23 PM 41.3903 -104.0819 217° Southwest 151 174 8,000  Level Denver Center
Sun 01:42:25 PM 41.3586 -104.1167 219° Southwest 153 176 8,000  Level Denver Center
Sun 01:43:27 PM 41.3261 -104.1492 217° Southwest 153 176 8,000  Level Denver Center
Sun 01:45:00 PM 41.2680 -104.1821 217° Southwest  Level FlightAware Approximate
Sun 01:52:00 PM 41.0470 -104.4042 217° Southwest  Level FlightAware Approximate
Sun 01:53:00 PM 41.0154 -104.4358 217° Southwest  Level FlightAware Approximate
Sun 01:54:00 PM 40.9838 -104.4673 217° Southwest  Level FlightAware Approximate
Sun 01:55:00 PM 40.9522 -104.4989 217° Southwest  Level FlightAware Approximate
Sun 01:56:00 PM 40.9206 -104.5304 217° Southwest  Level FlightAware Approximate
Sun 01:56:00 PM 40.9000 -104.5667 217° Southwest 143 165 8,000  Level Denver TRACON
Sun 01:56:54 PM 40.8833 -104.6000 237° Southwest 147 169 8,000  Level Denver TRACON
Sun 01:57:00 PM 40.8889 -104.5619 217° Southwest  Level FlightAware Approximate
Sun 01:57:54 PM 40.8500 -104.6333 217° Southwest 145 167 8,000  Level Denver TRACON
Sun 01:58:00 PM 40.8573 -104.5933 217° Southwest  Level FlightAware Approximate
Sun 01:58:54 PM 40.8167 -104.6667 217° Southwest 152 175 8,000  Level Denver TRACON
Sun 01:59:00 PM 40.8256 -104.6247 217° Southwest  Level FlightAware Approximate
Sun 01:59:54 PM 40.7833 -104.6833 201° Southwest 152 175 8,000  Level Denver TRACON
Sun 02:00:00 PM 40.7940 -104.6561 217° Southwest  Level FlightAware Approximate
Sun 02:00:48 PM 40.7500 -104.7167 217° Southwest 150 173 8,000  Level Denver TRACON
Sun 02:01:00 PM 40.7624 -104.6877 217° Southwest  Level FlightAware Approximate
Sun 02:01:48 PM 40.7167 -104.7500 217° Southwest 150 173 8,000  Level Denver TRACON
Sun 02:02:48 PM 40.6833 -104.7833 217° Southwest 156 180 8,000  Level Denver TRACON
Sun 02:03:42 PM 40.6500 -104.8167 217° Southwest 149 171 8,000  Level Denver TRACON
Sun 02:04:42 PM 40.6167 -104.8500 217° Southwest 165 190 8,000  Level Denver TRACON

Login

Don't have an account? Register now (free) for customized features, flight alerts, and more!